sensor_id;sensor_type;location;lat;lon;timestamp;temperature;humidity
75105;DHT22;64778;47.314;8.466;2023-02-27T00:02:24;-1.00;73.60
75105;DHT22;64778;47.314;8.466;2023-02-27T00:04:50;-0.90;74.20
75105;DHT22;64778;47.314;8.466;2023-02-27T00:07:18;-1.00;73.50
75105;DHT22;64778;47.314;8.466;2023-02-27T00:09:51;-1.00;74.00
75105;DHT22;64778;47.314;8.466;2023-02-27T00:12:16;-1.00;74.40
75105;DHT22;64778;47.314;8.466;2023-02-27T00:14:42;-0.90;74.00
75105;DHT22;64778;47.314;8.466;2023-02-27T00:17:10;-0.90;74.40
75105;DHT22;64778;47.314;8.466;2023-02-27T00:19:38;-0.90;74.10
75105;DHT22;64778;47.314;8.466;2023-02-27T00:22:06;-0.90;74.10
75105;DHT22;64778;47.314;8.466;2023-02-27T00:24:36;-0.90;74.20
75105;DHT22;64778;47.314;8.466;2023-02-27T00:27:02;-0.90;74.00
75105;DHT22;64778;47.314;8.466;2023-02-27T00:29:28;-1.00;73.90
75105;DHT22;64778;47.314;8.466;2023-02-27T00:31:58;-0.90;73.50
75105;DHT22;64778;47.314;8.466;2023-02-27T00:34:24;-0.90;73.50
75105;DHT22;64778;47.314;8.466;2023-02-27T00:36:52;-0.90;73.80
75105;DHT22;64778;47.314;8.466;2023-02-27T00:39:20;-0.90;74.20
75105;DHT22;64778;47.314;8.466;2023-02-27T00:41:48;-0.90;73.90
75105;DHT22;64778;47.314;8.466;2023-02-27T00:44:13;-1.00;73.80
75105;DHT22;64778;47.314;8.466;2023-02-27T00:46:41;-1.00;74.00
75105;DHT22;64778;47.314;8.466;2023-02-27T00:49:09;-1.00;74.10
75105;DHT22;64778;47.314;8.466;2023-02-27T00:51:34;-1.00;73.60
75105;DHT22;64778;47.314;8.466;2023-02-27T00:54:05;-1.00;73.60
75105;DHT22;64778;47.314;8.466;2023-02-27T00:56:30;-1.00;73.50
75105;DHT22;64778;47.314;8.466;2023-02-27T00:58:59;-1.00;73.60
75105;DHT22;64778;47.314;8.466;2023-02-27T01:01:26;-1.00;73.80
75105;DHT22;64778;47.314;8.466;2023-02-27T01:03:52;-1.00;72.80
75105;DHT22;64778;47.314;8.466;2023-02-27T01:06:20;-1.00;73.10
75105;DHT22;64778;47.314;8.466;2023-02-27T01:08:48;-1.00;73.70
75105;DHT22;64778;47.314;8.466;2023-02-27T01:11:14;-1.00;73.60
75105;DHT22;64778;47.314;8.466;2023-02-27T01:13:42;-1.00;73.40
75105;DHT22;64778;47.314;8.466;2023-02-27T01:16:11;-1.00;73.60
75105;DHT22;64778;47.314;8.466;2023-02-27T01:18:37;-1.00;73.90
75105;DHT22;64778;47.314;8.466;2023-02-27T01:21:03;-1.10;74.50
75105;DHT22;64778;47.314;8.466;2023-02-27T01:23:32;-1.00;73.80
75105;DHT22;64778;47.314;8.466;2023-02-27T01:25:57;-1.00;73.90
75105;DHT22;64778;47.314;8.466;2023-02-27T01:28:23;-1.00;74.30
75105;DHT22;64778;47.314;8.466;2023-02-27T01:30:50;-1.10;73.80
75105;DHT22;64778;47.314;8.466;2023-02-27T01:33:18;-1.10;74.20
75105;DHT22;64778;47.314;8.466;2023-02-27T01:39:06;-1.00;74.50
75105;DHT22;64778;47.314;8.466;2023-02-27T01:41:32;-1.10;74.50
75105;DHT22;64778;47.314;8.466;2023-02-27T01:44:05;-1.10;74.90
75105;DHT22;64778;47.314;8.466;2023-02-27T01:46:36;-1.10;74.60
75105;DHT22;64778;47.314;8.466;2023-02-27T01:49:28;-1.10;74.90
75105;DHT22;64778;47.314;8.466;2023-02-27T01:52:00;-1.20;75.00
75105;DHT22;64778;47.314;8.466;2023-02-27T01:54:33;-1.20;75.80
75105;DHT22;64778;47.314;8.466;2023-02-27T01:57:05;-1.20;75.70
75105;DHT22;64778;47.314;8.466;2023-02-27T01:59:37;-1.20;75.90
75105;DHT22;64778;47.314;8.466;2023-02-27T02:02:10;-1.20;76.00
75105;DHT22;64778;47.314;8.466;2023-02-27T02:04:40;-1.20;76.10
75105;DHT22;64778;47.314;8.466;2023-02-27T02:07:12;-1.20;76.10
75105;DHT22;64778;47.314;8.466;2023-02-27T02:09:49;-1.20;76.00
75105;DHT22;64778;47.314;8.466;2023-02-27T02:12:20;-1.20;76.00
75105;DHT22;64778;47.314;8.466;2023-02-27T02:14:46;-1.30;75.90
75105;DHT22;64778;47.314;8.466;2023-02-27T02:23:25;-1.30;76.10
75105;DHT22;64778;47.314;8.466;2023-02-27T02:40:24;-1.30;76.30
75105;DHT22;64778;47.314;8.466;2023-02-27T02:48:29;-1.30;76.10
75105;DHT22;64778;47.314;8.466;2023-02-27T02:51:33;-1.30;76.30
75105;DHT22;64778;47.314;8.466;2023-02-27T02:59:13;-1.20;76.40
75105;DHT22;64778;47.314;8.466;2023-02-27T03:01:45;-1.30;76.30
75105;DHT22;64778;47.314;8.466;2023-02-27T03:04:20;-1.30;76.20
75105;DHT22;64778;47.314;8.466;2023-02-27T03:06:55;-1.30;76.10
75105;DHT22;64778;47.314;8.466;2023-02-27T03:11:56;-1.20;76.00
75105;DHT22;64778;47.314;8.466;2023-02-27T03:14:34;-1.30;75.80
75105;DHT22;64778;47.314;8.466;2023-02-27T03:17:06;-1.20;76.50
75105;DHT22;64778;47.314;8.466;2023-02-27T03:19:40;-1.20;76.40
75105;DHT22;64778;47.314;8.466;2023-02-27T03:22:16;-1.20;76.30
75105;DHT22;64778;47.314;8.466;2023-02-27T03:24:47;-1.20;76.60
75105;DHT22;64778;47.314;8.466;2023-02-27T03:27:15;-1.20;76.60
75105;DHT22;64778;47.314;8.466;2023-02-27T03:30:07;-1.30;76.60
75105;DHT22;64778;47.314;8.466;2023-02-27T03:35:48;-1.20;76.40
75105;DHT22;64778;47.314;8.466;2023-02-27T03:43:58;-1.20;76.70
75105;DHT22;64778;47.314;8.466;2023-02-27T03:46:28;-1.30;76.50
75105;DHT22;64778;47.314;8.466;2023-02-27T03:48:54;-1.30;76.80
75105;DHT22;64778;47.314;8.466;2023-02-27T03:51:23;-1.30;76.70
75105;DHT22;64778;47.314;8.466;2023-02-27T03:54:11;-1.30;76.80
75105;DHT22;64778;47.314;8.466;2023-02-27T03:59:23;-1.30;76.60
75105;DHT22;64778;47.314;8.466;2023-02-27T04:01:54;-1.30;76.50
75105;DHT22;64778;47.314;8.466;2023-02-27T04:04:23;-1.30;76.30
75105;DHT22;64778;47.314;8.466;2023-02-27T04:24:28;-1.30;75.90
75105;DHT22;64778;47.314;8.466;2023-02-27T04:27:14;-1.30;75.10
75105;DHT22;64778;47.314;8.466;2023-02-27T04:32:39;-1.30;75.40
75105;DHT22;64778;47.314;8.466;2023-02-27T04:35:15;-1.40;75.10
75105;DHT22;64778;47.314;8.466;2023-02-27T04:40:35;-1.40;74.70
75105;DHT22;64778;47.314;8.466;2023-02-27T04:43:05;-1.30;74.60
75105;DHT22;64778;47.314;8.466;2023-02-27T04:45:34;-1.30;74.40
75105;DHT22;64778;47.314;8.466;2023-02-27T04:48:31;-1.30;74.00
75105;DHT22;64778;47.314;8.466;2023-02-27T04:51:17;-1.40;73.80
75105;DHT22;64778;47.314;8.466;2023-02-27T04:53:46;-1.30;73.50
75105;DHT22;64778;47.314;8.466;2023-02-27T04:56:33;-1.40;73.20
75105;DHT22;64778;47.314;8.466;2023-02-27T04:59:03;-1.30;72.80
75105;DHT22;64778;47.314;8.466;2023-02-27T05:04:21;-1.40;72.50
75105;DHT22;64778;47.314;8.466;2023-02-27T05:06:50;-1.40;73.00
75105;DHT22;64778;47.314;8.466;2023-02-27T05:09:36;-1.40;73.10
75105;DHT22;64778;47.314;8.466;2023-02-27T05:12:04;-1.40;72.30
75105;DHT22;64778;47.314;8.466;2023-02-27T05:14:34;-1.40;72.80
75105;DHT22;64778;47.314;8.466;2023-02-27T05:20:14;-1.40;73.40
75105;DHT22;64778;47.314;8.466;2023-02-27T05:27:49;-1.40;74.20
75105;DHT22;64778;47.314;8.466;2023-02-27T05:33:28;-1.50;75.00
75105;DHT22;64778;47.314;8.466;2023-02-27T05:38:42;-1.50;75.30
75105;DHT22;64778;47.314;8.466;2023-02-27T05:41:13;-1.50;75.20
75105;DHT22;64778;47.314;8.466;2023-02-27T05:43:53;-1.60;75.40
75105;DHT22;64778;47.314;8.466;2023-02-27T05:46:32;-1.50;75.40
75105;DHT22;64778;47.314;8.466;2023-02-27T05:49:03;-1.50;76.10
75105;DHT22;64778;47.314;8.466;2023-02-27T05:51:32;-1.60;76.10
75105;DHT22;64778;47.314;8.466;2023-02-27T05:54:06;-1.50;76.60
75105;DHT22;64778;47.314;8.466;2023-02-27T05:56:36;-1.60;76.80
75105;DHT22;64778;47.314;8.466;2023-02-27T05:59:05;-1.60;76.60
75105;DHT22;64778;47.314;8.466;2023-02-27T06:01:33;-1.70;76.80
75105;DHT22;64778;47.314;8.466;2023-02-27T06:03:58;-1.60;76.50
75105;DHT22;64778;47.314;8.466;2023-02-27T06:06:24;-1.60;76.20
75105;DHT22;64778;47.314;8.466;2023-02-27T06:08:50;-1.60;76.60
75105;DHT22;64778;47.314;8.466;2023-02-27T06:11:17;-1.60;76.60
75105;DHT22;64778;47.314;8.466;2023-02-27T06:13:43;-1.70;76.60
75105;DHT22;64778;47.314;8.466;2023-02-27T06:16:15;-1.70;76.70
75105;DHT22;64778;47.314;8.466;2023-02-27T06:18:41;-1.70;76.60
75105;DHT22;64778;47.314;8.466;2023-02-27T06:21:07;-1.70;76.50
75105;DHT22;64778;47.314;8.466;2023-02-27T06:23:32;-1.60;76.30
75105;DHT22;64778;47.314;8.466;2023-02-27T06:25:58;-1.60;75.90
75105;DHT22;64778;47.314;8.466;2023-02-27T06:28:23;-1.60;76.30
75105;DHT22;64778;47.314;8.466;2023-02-27T06:30:53;-1.60;76.40
75105;DHT22;64778;47.314;8.466;2023-02-27T06:33:23;-1.60;76.10
75105;DHT22;64778;47.314;8.466;2023-02-27T06:35:50;-1.60;76.10
75105;DHT22;64778;47.314;8.466;2023-02-27T06:38:15;-1.60;76.10
75105;DHT22;64778;47.314;8.466;2023-02-27T06:40:41;-1.50;76.10
75105;DHT22;64778;47.314;8.466;2023-02-27T06:43:07;-1.50;75.70
75105;DHT22;64778;47.314;8.466;2023-02-27T06:45:35;-1.50;75.50
75105;DHT22;64778;47.314;8.466;2023-02-27T06:48:00;-1.50;75.10
75105;DHT22;64778;47.314;8.466;2023-02-27T06:50:26;-1.50;75.40
75105;DHT22;64778;47.314;8.466;2023-02-27T06:52:51;-1.50;75.50
75105;DHT22;64778;47.314;8.466;2023-02-27T06:55:17;-1.50;75.50
75105;DHT22;64778;47.314;8.466;2023-02-27T06:57:50;-1.40;75.40
75105;DHT22;64778;47.314;8.466;2023-02-27T07:00:18;-1.40;75.40
75105;DHT22;64778;47.314;8.466;2023-02-27T07:02:44;-1.40;75.20
75105;DHT22;64778;47.314;8.466;2023-02-27T07:05:09;-1.30;75.30
75105;DHT22;64778;47.314;8.466;2023-02-27T07:07:37;-1.30;75.00
75105;DHT22;64778;47.314;8.466;2023-02-27T07:10:08;-1.40;75.30
75105;DHT22;64778;47.314;8.466;2023-02-27T07:12:36;-1.40;75.40
75105;DHT22;64778;47.314;8.466;2023-02-27T07:15:01;-1.30;75.40
75105;DHT22;64778;47.314;8.466;2023-02-27T07:17:29;-1.30;75.20
75105;DHT22;64778;47.314;8.466;2023-02-27T07:19:56;-1.30;75.20
75105;DHT22;64778;47.314;8.466;2023-02-27T07:22:23;-1.20;75.40
75105;DHT22;64778;47.314;8.466;2023-02-27T07:24:49;-1.30;75.50
75105;DHT22;64778;47.314;8.466;2023-02-27T07:27:14;-1.20;75.20
75105;DHT22;64778;47.314;8.466;2023-02-27T07:29:44;-1.30;75.40
75105;DHT22;64778;47.314;8.466;2023-02-27T07:32:10;-1.30;75.30
75105;DHT22;64778;47.314;8.466;2023-02-27T07:34:36;-1.30;75.40
75105;DHT22;64778;47.314;8.466;2023-02-27T07:37:01;-1.20;75.10
75105;DHT22;64778;47.314;8.466;2023-02-27T07:39:27;-1.20;75.20
75105;DHT22;64778;47.314;8.466;2023-02-27T07:41:52;-1.20;75.10
75105;DHT22;64778;47.314;8.466;2023-02-27T07:44:18;-1.20;75.10
75105;DHT22;64778;47.314;8.466;2023-02-27T07:46:43;-1.10;75.10
75105;DHT22;64778;47.314;8.466;2023-02-27T07:49:11;-1.10;75.20
75105;DHT22;64778;47.314;8.466;2023-02-27T07:51:36;-1.20;75.10
75105;DHT22;64778;47.314;8.466;2023-02-27T07:54:02;-1.10;75.20
75105;DHT22;64778;47.314;8.466;2023-02-27T07:56:27;-1.10;75.00
75105;DHT22;64778;47.314;8.466;2023-02-27T07:58:55;-1.00;74.70
75105;DHT22;64778;47.314;8.466;2023-02-27T08:01:21;-1.00;74.70
75105;DHT22;64778;47.314;8.466;2023-02-27T08:03:46;-0.90;74.70
75105;DHT22;64778;47.314;8.466;2023-02-27T08:06:15;-0.90;74.70
75105;DHT22;64778;47.314;8.466;2023-02-27T08:12:03;-0.60;73.80
75105;DHT22;64778;47.314;8.466;2023-02-27T08:14:29;-0.60;73.50
75105;DHT22;64778;47.314;8.466;2023-02-27T08:16:55;-0.80;73.90
75105;DHT22;64778;47.314;8.466;2023-02-27T08:19:20;-0.60;73.70
75105;DHT22;64778;47.314;8.466;2023-02-27T08:21:46;-0.60;73.40
75105;DHT22;64778;47.314;8.466;2023-02-27T08:24:14;-0.50;73.40
75105;DHT22;64778;47.314;8.466;2023-02-27T08:26:42;-0.50;73.40
75105;DHT22;64778;47.314;8.466;2023-02-27T08:29:07;-0.40;72.70
75105;DHT22;64778;47.314;8.466;2023-02-27T08:31:33;-0.30;72.40
75105;DHT22;64778;47.314;8.466;2023-02-27T08:33:59;-0.30;72.50
75105;DHT22;64778;47.314;8.466;2023-02-27T08:36:27;-0.20;73.00
75105;DHT22;64778;47.314;8.466;2023-02-27T08:38:52;-0.10;72.00
75105;DHT22;64778;47.314;8.466;2023-02-27T08:41:18;-0.40;72.00
75105;DHT22;64778;47.314;8.466;2023-02-27T08:43:44;-0.40;72.70
75105;DHT22;64778;47.314;8.466;2023-02-27T08:46:29;-0.20;72.40
75105;DHT22;64778;47.314;8.466;2023-02-27T08:49:12;-0.20;72.00
75105;DHT22;64778;47.314;8.466;2023-02-27T08:55:20;-0.10;71.80
75105;DHT22;64778;47.314;8.466;2023-02-27T09:01:09;0.00;71.40
75105;DHT22;64778;47.314;8.466;2023-02-27T09:03:37;0.10;71.30
75105;DHT22;64778;47.314;8.466;2023-02-27T09:09:25;0.20;70.70
75105;DHT22;64778;47.314;8.466;2023-02-27T09:11:54;0.30;70.90
75105;DHT22;64778;47.314;8.466;2023-02-27T09:14:22;0.30;70.40
75105;DHT22;64778;47.314;8.466;2023-02-27T09:16:48;0.40;70.10
75105;DHT22;64778;47.314;8.466;2023-02-27T09:19:21;0.30;70.20
75105;DHT22;64778;47.314;8.466;2023-02-27T09:25:09;0.30;69.60
75105;DHT22;64778;47.314;8.466;2023-02-27T09:27:37;0.40;69.90
75105;DHT22;64778;47.314;8.466;2023-02-27T09:30:03;0.20;70.00
75105;DHT22;64778;47.314;8.466;2023-02-27T09:35:54;0.30;70.00
75105;DHT22;64778;47.314;8.466;2023-02-27T09:38:19;0.40;69.90
75105;DHT22;64778;47.314;8.466;2023-02-27T09:40:46;0.40;69.80
75105;DHT22;64778;47.314;8.466;2023-02-27T09:43:19;0.50;70.10
75105;DHT22;64778;47.314;8.466;2023-02-27T09:45:51;0.50;69.70
75105;DHT22;64778;47.314;8.466;2023-02-27T09:51:08;0.70;69.30
75105;DHT22;64778;47.314;8.466;2023-02-27T09:53:39;0.80;68.60
75105;DHT22;64778;47.314;8.466;2023-02-27T09:56:23;1.20;68.70
75105;DHT22;64778;47.314;8.466;2023-02-27T10:01:28;1.00;69.00
75105;DHT22;64778;47.314;8.466;2023-02-27T10:07:37;1.10;68.60
75105;DHT22;64778;47.314;8.466;2023-02-27T10:09:53;1.00;68.50
75105;DHT22;64778;47.314;8.466;2023-02-27T10:15:47;0.80;69.70
75105;DHT22;64778;47.314;8.466;2023-02-27T10:21:42;1.00;69.70
75105;DHT22;64778;47.314;8.466;2023-02-27T10:26:52;0.80;69.90
75105;DHT22;64778;47.314;8.466;2023-02-27T10:29:34;0.70;69.90
75105;DHT22;64778;47.314;8.466;2023-02-27T10:32:21;0.70;69.70
75105;DHT22;64778;47.314;8.466;2023-02-27T10:35:40;0.80;69.90
75105;DHT22;64778;47.314;8.466;2023-02-27T10:37:45;0.90;69.30
75105;DHT22;64778;47.314;8.466;2023-02-27T10:40:14;1.00;70.10
75105;DHT22;64778;47.314;8.466;2023-02-27T10:42:44;1.00;70.00
75105;DHT22;64778;47.314;8.466;2023-02-27T10:45:14;1.40;68.60
75105;DHT22;64778;47.314;8.466;2023-02-27T10:47:43;1.70;68.20
75105;DHT22;64778;47.314;8.466;2023-02-27T10:50:29;1.70;68.20
75105;DHT22;64778;47.314;8.466;2023-02-27T10:53:05;2.00;67.90
75105;DHT22;64778;47.314;8.466;2023-02-27T10:55:36;1.80;67.80
75105;DHT22;64778;47.314;8.466;2023-02-27T10:58:05;1.60;67.40
75105;DHT22;64778;47.314;8.466;2023-02-27T11:00:42;1.60;67.00
75105;DHT22;64778;47.314;8.466;2023-02-27T11:03:22;1.90;67.10
75105;DHT22;64778;47.314;8.466;2023-02-27T11:05:57;2.00;66.20
75105;DHT22;64778;47.314;8.466;2023-02-27T11:11:45;1.80;66.90
75105;DHT22;64778;47.314;8.466;2023-02-27T11:17:33;2.00;67.60
75105;DHT22;64778;47.314;8.466;2023-02-27T11:23:13;2.20;65.60
75105;DHT22;64778;47.314;8.466;2023-02-27T11:25:39;2.20;64.90
75105;DHT22;64778;47.314;8.466;2023-02-27T11:28:25;2.40;64.50
75105;DHT22;64778;47.314;8.466;2023-02-27T11:31:14;2.40;64.60
75105;DHT22;64778;47.314;8.466;2023-02-27T11:33:52;2.60;64.10
75105;DHT22;64778;47.314;8.466;2023-02-27T11:36:18;2.30;64.00
75105;DHT22;64778;47.314;8.466;2023-02-27T11:38:54;2.00;65.30
75105;DHT22;64778;47.314;8.466;2023-02-27T11:41:32;1.90;65.80
75105;DHT22;64778;47.314;8.466;2023-02-27T11:44:04;1.90;65.90
75105;DHT22;64778;47.314;8.466;2023-02-27T11:46:35;1.70;66.30
75105;DHT22;64778;47.314;8.466;2023-02-27T11:49:37;1.80;66.20
75105;DHT22;64778;47.314;8.466;2023-02-27T11:54:56;1.60;64.90
75105;DHT22;64778;47.314;8.466;2023-02-27T11:57:30;1.60;66.00
75105;DHT22;64778;47.314;8.466;2023-02-27T12:00:00;1.60;66.70
75105;DHT22;64778;47.314;8.466;2023-02-27T12:02:29;1.30;66.90
75105;DHT22;64778;47.314;8.466;2023-02-27T12:05:11;1.10;67.80
75105;DHT22;64778;47.314;8.466;2023-02-27T12:07:52;1.30;67.50
75105;DHT22;64778;47.314;8.466;2023-02-27T12:10:56;0.90;68.10
75105;DHT22;64778;47.314;8.466;2023-02-27T12:13:26;1.00;68.70
75105;DHT22;64778;47.314;8.466;2023-02-27T12:16:16;1.30;68.50
75105;DHT22;64778;47.314;8.466;2023-02-27T12:18:54;1.00;67.10
75105;DHT22;64778;47.314;8.466;2023-02-27T12:21:27;1.00;68.70
75105;DHT22;64778;47.314;8.466;2023-02-27T12:26:41;1.30;68.40
75105;DHT22;64778;47.314;8.466;2023-02-27T12:31:51;1.20;67.90
75105;DHT22;64778;47.314;8.466;2023-02-27T12:37:12;1.40;67.00
75105;DHT22;64778;47.314;8.466;2023-02-27T12:39:41;1.60;67.40
75105;DHT22;64778;47.314;8.466;2023-02-27T12:47:50;1.50;67.00
75105;DHT22;64778;47.314;8.466;2023-02-27T12:50:21;1.60;67.40
75105;DHT22;64778;47.314;8.466;2023-02-27T12:55:48;1.20;68.60
75105;DHT22;64778;47.314;8.466;2023-02-27T13:01:00;0.80;70.00
75105;DHT22;64778;47.314;8.466;2023-02-27T13:22:39;1.30;70.90
75105;DHT22;64778;47.314;8.466;2023-02-27T13:25:14;1.40;71.10
75105;DHT22;64778;47.314;8.466;2023-02-27T13:27:50;1.40;71.20
75105;DHT22;64778;47.314;8.466;2023-02-27T13:30:24;1.30;71.80
75105;DHT22;64778;47.314;8.466;2023-02-27T13:33:33;0.90;73.60
75105;DHT22;64778;47.314;8.466;2023-02-27T13:36:29;1.00;75.20
75105;DHT22;64778;47.314;8.466;2023-02-27T13:38:56;0.90;75.70
75105;DHT22;64778;47.314;8.466;2023-02-27T13:43:49;1.20;76.10
75105;DHT22;64778;47.314;8.466;2023-02-27T13:59:36;1.40;78.30
75105;DHT22;64778;47.314;8.466;2023-02-27T14:07:14;1.20;76.40
75105;DHT22;64778;47.314;8.466;2023-02-27T14:09:44;1.40;78.10
75105;DHT22;64778;47.314;8.466;2023-02-27T14:12:39;1.50;78.10
75105;DHT22;64778;47.314;8.466;2023-02-27T14:17:56;0.90;80.10
75105;DHT22;64778;47.314;8.466;2023-02-27T14:31:01;0.50;83.00
75105;DHT22;64778;47.314;8.466;2023-02-27T14:33:39;0.50;83.30
75105;DHT22;64778;47.314;8.466;2023-02-27T14:36:16;0.50;82.20
75105;DHT22;64778;47.314;8.466;2023-02-27T14:38:45;0.70;83.00
75105;DHT22;64778;47.314;8.466;2023-02-27T14:47:03;0.30;82.70
75105;DHT22;64778;47.314;8.466;2023-02-27T14:49:31;0.20;83.60
75105;DHT22;64778;47.314;8.466;2023-02-27T14:52:10;0.20;83.10
75105;DHT22;64778;47.314;8.466;2023-02-27T14:54:41;0.40;83.10
75105;DHT22;64778;47.314;8.466;2023-02-27T14:57:21;0.40;83.30
75105;DHT22;64778;47.314;8.466;2023-02-27T14:59:49;0.40;82.30
75105;DHT22;64778;47.314;8.466;2023-02-27T15:02:33;0.20;82.50
75105;DHT22;64778;47.314;8.466;2023-02-27T15:10:31;0.10;84.50
75105;DHT22;64778;47.314;8.466;2023-02-27T15:12:59;0.20;83.30
75105;DHT22;64778;47.314;8.466;2023-02-27T15:18:48;0.30;83.30
75105;DHT22;64778;47.314;8.466;2023-02-27T15:21:17;0.40;82.40
75105;DHT22;64778;47.314;8.466;2023-02-27T15:23:43;0.30;81.80
75105;DHT22;64778;47.314;8.466;2023-02-27T15:26:17;0.30;82.50
75105;DHT22;64778;47.314;8.466;2023-02-27T15:28:43;0.00;83.10
75105;DHT22;64778;47.314;8.466;2023-02-27T15:31:09;-0.20;83.40
75105;DHT22;64778;47.314;8.466;2023-02-27T15:33:38;-0.10;84.40
75105;DHT22;64778;47.314;8.466;2023-02-27T15:36:05;-0.10;83.90
75105;DHT22;64778;47.314;8.466;2023-02-27T15:42:04;-0.10;83.60
75105;DHT22;64778;47.314;8.466;2023-02-27T15:44:38;-0.10;83.80
75105;DHT22;64778;47.314;8.466;2023-02-27T15:47:05;-0.10;84.60
75105;DHT22;64778;47.314;8.466;2023-02-27T15:49:31;-0.20;83.10
75105;DHT22;64778;47.314;8.466;2023-02-27T15:52:00;-0.20;83.90
75105;DHT22;64778;47.314;8.466;2023-02-27T15:54:36;-0.20;84.10
75105;DHT22;64778;47.314;8.466;2023-02-27T15:57:07;-0.20;83.00
75105;DHT22;64778;47.314;8.466;2023-02-27T15:59:35;-0.30;83.40
75105;DHT22;64778;47.314;8.466;2023-02-27T16:02:15;-0.40;83.80
75105;DHT22;64778;47.314;8.466;2023-02-27T16:04:44;-0.30;84.40
75105;DHT22;64778;47.314;8.466;2023-02-27T16:07:23;-0.50;84.00
75105;DHT22;64778;47.314;8.466;2023-02-27T16:09:55;-0.50;84.40
75105;DHT22;64778;47.314;8.466;2023-02-27T16:15:30;-0.40;84.90
75105;DHT22;64778;47.314;8.466;2023-02-27T16:23:22;-0.50;84.00
75105;DHT22;64778;47.314;8.466;2023-02-27T16:29:30;-0.60;84.00
75105;DHT22;64778;47.314;8.466;2023-02-27T16:35:21;-0.60;84.00
75105;DHT22;64778;47.314;8.466;2023-02-27T16:37:48;-0.70;83.90
75105;DHT22;64778;47.314;8.466;2023-02-27T16:40:23;-0.70;83.90
75105;DHT22;64778;47.314;8.466;2023-02-27T16:46:13;-0.50;83.10
75105;DHT22;64778;47.314;8.466;2023-02-27T16:48:51;-0.60;82.60
75105;DHT22;64778;47.314;8.466;2023-02-27T16:51:22;-0.60;82.10
75105;DHT22;64778;47.314;8.466;2023-02-27T16:53:52;-0.70;82.30
75105;DHT22;64778;47.314;8.466;2023-02-27T16:56:20;-0.80;82.30
75105;DHT22;64778;47.314;8.466;2023-02-27T16:58:49;-0.70;82.70
75105;DHT22;64778;47.314;8.466;2023-02-27T17:01:17;-0.70;82.60
75105;DHT22;64778;47.314;8.466;2023-02-27T17:03:45;-0.70;82.90
75105;DHT22;64778;47.314;8.466;2023-02-27T17:06:14;-0.60;83.20
75105;DHT22;64778;47.314;8.466;2023-02-27T17:08:40;-0.70;82.30
75105;DHT22;64778;47.314;8.466;2023-02-27T17:11:06;-0.70;82.40
75105;DHT22;64778;47.314;8.466;2023-02-27T17:13:31;-0.80;82.60
75105;DHT22;64778;47.314;8.466;2023-02-27T17:15:58;-0.70;82.60
75105;DHT22;64778;47.314;8.466;2023-02-27T17:18:25;-0.60;81.80
75105;DHT22;64778;47.314;8.466;2023-02-27T17:20:54;-0.70;81.90
75105;DHT22;64778;47.314;8.466;2023-02-27T17:23:21;-0.70;81.70
75105;DHT22;64778;47.314;8.466;2023-02-27T17:25:47;-0.70;81.50
75105;DHT22;64778;47.314;8.466;2023-02-27T17:28:13;-0.80;81.60
75105;DHT22;64778;47.314;8.466;2023-02-27T17:30:39;-0.80;81.50
75105;DHT22;64778;47.314;8.466;2023-02-27T17:33:07;-0.70;81.40
75105;DHT22;64778;47.314;8.466;2023-02-27T17:35:32;-0.80;81.00
75105;DHT22;64778;47.314;8.466;2023-02-27T17:41:22;-0.90;80.80
75105;DHT22;64778;47.314;8.466;2023-02-27T17:43:52;-0.80;81.30
75105;DHT22;64778;47.314;8.466;2023-02-27T17:46:20;-0.90;81.40
75105;DHT22;64778;47.314;8.466;2023-02-27T17:52:11;-0.90;82.20
75105;DHT22;64778;47.314;8.466;2023-02-27T17:57:59;-0.90;82.00
75105;DHT22;64778;47.314;8.466;2023-02-27T18:00:25;-0.90;82.40
75105;DHT22;64778;47.314;8.466;2023-02-27T18:02:50;-0.90;81.90
75105;DHT22;64778;47.314;8.466;2023-02-27T18:05:18;-0.90;82.20
75105;DHT22;64778;47.314;8.466;2023-02-27T18:07:44;-0.90;82.30
75105;DHT22;64778;47.314;8.466;2023-02-27T18:10:10;-1.00;82.00
75105;DHT22;64778;47.314;8.466;2023-02-27T18:12:40;-1.00;82.10
75105;DHT22;64778;47.314;8.466;2023-02-27T18:15:08;-0.90;82.20
75105;DHT22;64778;47.314;8.466;2023-02-27T18:17:34;-0.80;82.10
75105;DHT22;64778;47.314;8.466;2023-02-27T18:20:00;-0.80;82.30
75105;DHT22;64778;47.314;8.466;2023-02-27T18:22:28;-0.90;82.00
75105;DHT22;64778;47.314;8.466;2023-02-27T18:28:18;-0.90;82.20
75105;DHT22;64778;47.314;8.466;2023-02-27T18:34:06;-0.90;82.40
75105;DHT22;64778;47.314;8.466;2023-02-27T18:36:32;-0.90;82.20
75105;DHT22;64778;47.314;8.466;2023-02-27T18:38:58;-1.00;82.70
75105;DHT22;64778;47.314;8.466;2023-02-27T18:41:24;-0.90;82.50
75105;DHT22;64778;47.314;8.466;2023-02-27T18:43:49;-1.00;82.80
75105;DHT22;64778;47.314;8.466;2023-02-27T18:49:20;-1.00;82.30
75105;DHT22;64778;47.314;8.466;2023-02-27T18:51:46;-1.10;82.30
75105;DHT22;64778;47.314;8.466;2023-02-27T18:54:13;-1.10;83.30
75105;DHT22;64778;47.314;8.466;2023-02-27T18:56:38;-1.10;82.60
75105;DHT22;64778;47.314;8.466;2023-02-27T18:59:04;-1.20;82.90
75105;DHT22;64778;47.314;8.466;2023-02-27T19:01:32;-1.20;82.30
75105;DHT22;64778;47.314;8.466;2023-02-27T19:04:01;-1.20;82.40
75105;DHT22;64778;47.314;8.466;2023-02-27T19:06:33;-1.30;81.80
75105;DHT22;64778;47.314;8.466;2023-02-27T19:09:01;-1.20;81.60
75105;DHT22;64778;47.314;8.466;2023-02-27T19:11:29;-1.30;81.90
75105;DHT22;64778;47.314;8.466;2023-02-27T19:13:59;-1.20;81.90
75105;DHT22;64778;47.314;8.466;2023-02-27T19:16:28;-1.20;81.50
75105;DHT22;64778;47.314;8.466;2023-02-27T19:18:54;-1.10;81.00
75105;DHT22;64778;47.314;8.466;2023-02-27T19:21:25;-1.20;81.90
75105;DHT22;64778;47.314;8.466;2023-02-27T19:23:51;-1.30;81.70
75105;DHT22;64778;47.314;8.466;2023-02-27T19:29:20;-1.20;81.50
75105;DHT22;64778;47.314;8.466;2023-02-27T19:31:46;-1.20;81.60
75105;DHT22;64778;47.314;8.466;2023-02-27T19:37:14;-1.30;81.20
75105;DHT22;64778;47.314;8.466;2023-02-27T19:39:41;-1.20;81.30
75105;DHT22;64778;47.314;8.466;2023-02-27T19:42:06;-1.20;81.30
75105;DHT22;64778;47.314;8.466;2023-02-27T19:44:32;-1.10;80.60
75105;DHT22;64778;47.314;8.466;2023-02-27T19:47:00;-1.10;80.70
75105;DHT22;64778;47.314;8.466;2023-02-27T19:49:25;-1.20;80.00
75105;DHT22;64778;47.314;8.466;2023-02-27T19:51:51;-1.20;79.90
75105;DHT22;64778;47.314;8.466;2023-02-27T19:57:22;-1.00;79.90
75105;DHT22;64778;47.314;8.466;2023-02-27T19:59:48;-1.20;79.80
75105;DHT22;64778;47.314;8.466;2023-02-27T20:05:16;-1.10;79.70
75105;DHT22;64778;47.314;8.466;2023-02-27T20:10:58;-1.00;79.50
75105;DHT22;64778;47.314;8.466;2023-02-27T20:16:27;-1.10;79.70
75105;DHT22;64778;47.314;8.466;2023-02-27T20:18:54;-1.10;80.00
75105;DHT22;64778;47.314;8.466;2023-02-27T20:21:21;-1.10;79.20
75105;DHT22;64778;47.314;8.466;2023-02-27T20:26:50;-1.10;79.40
75105;DHT22;64778;47.314;8.466;2023-02-27T20:32:20;-1.30;79.70
75105;DHT22;64778;47.314;8.466;2023-02-27T20:34:47;-1.20;80.10
75105;DHT22;64778;47.314;8.466;2023-02-27T20:37:13;-1.30;80.00
75105;DHT22;64778;47.314;8.466;2023-02-27T20:39:38;-1.30;80.10
75105;DHT22;64778;47.314;8.466;2023-02-27T20:42:06;-1.30;80.00
75105;DHT22;64778;47.314;8.466;2023-02-27T20:44:32;-1.30;79.90
75105;DHT22;64778;47.314;8.466;2023-02-27T20:50:03;-1.30;80.10
75105;DHT22;64778;47.314;8.466;2023-02-27T20:52:31;-1.30;80.00